sensor_id;sensor_type;location;lat;lon;timestamp;pressure;altitude;pressure_sealevel;temperature;humidity
22255;BME280;11296;42.684;23.322;2022-10-17T00:01:48;96522.16;;;8.43;100.00
22255;BME280;11296;42.684;23.322;2022-10-17T00:04:14;96539.50;;;8.55;100.00
22255;BME280;11296;42.684;23.322;2022-10-17T00:06:40;96533.41;;;8.54;100.00
22255;BME280;11296;42.684;23.322;2022-10-17T00:09:06;96507.13;;;8.30;100.00
22255;BME280;11296;42.684;23.322;2022-10-17T00:11:31;96521.50;;;8.39;100.00
22255;BME280;11296;42.684;23.322;2022-10-17T00:13:57;96510.16;;;8.32;100.00
22255;BME280;11296;42.684;23.322;2022-10-17T00:16:30;96533.97;;;8.46;100.00
22255;BME280;11296;42.684;23.322;2022-10-17T00:18:57;96525.25;;;8.42;100.00
22255;BME280;11296;42.684;23.322;2022-10-17T00:21:23;96532.94;;;8.40;100.00
22255;BME280;11296;42.684;23.322;2022-10-17T00:23:49;96519.34;;;8.31;100.00
22255;BME280;11296;42.684;23.322;2022-10-17T00:26:16;96522.75;;;8.35;100.00
22255;BME280;11296;42.684;23.322;2022-10-17T00:28:45;96553.50;;;8.46;100.00
22255;BME280;11296;42.684;23.322;2022-10-17T00:31:11;96524.03;;;8.27;100.00
22255;BME280;11296;42.684;23.322;2022-10-17T00:33:36;96493.31;;;8.11;100.00
22255;BME280;11296;42.684;23.322;2022-10-17T00:38:41;96578.66;;;8.52;100.00
22255;BME280;11296;42.684;23.322;2022-10-17T00:41:09;96549.72;;;8.24;100.00
22255;BME280;11296;42.684;23.322;2022-10-17T00:44:57;96540.31;;;8.16;100.00
22255;BME280;11296;42.684;23.322;2022-10-17T00:46:50;96544.91;;;8.15;100.00
22255;BME280;11296;42.684;23.322;2022-10-17T00:49:16;96550.38;;;8.12;100.00
22255;BME280;11296;42.684;23.322;2022-10-17T00:51:48;96533.47;;;7.95;100.00
22255;BME280;11296;42.684;23.322;2022-10-17T00:54:17;96555.81;;;8.08;100.00
22255;BME280;11296;42.684;23.322;2022-10-17T00:56:45;96545.16;;;8.05;100.00
22255;BME280;11296;42.684;23.322;2022-10-17T00:59:12;96526.41;;;7.85;100.00
22255;BME280;11296;42.684;23.322;2022-10-17T01:01:40;96574.06;;;8.13;100.00
22255;BME280;11296;42.684;23.322;2022-10-17T01:04:08;96567.56;;;7.95;100.00
22255;BME280;11296;42.684;23.322;2022-10-17T01:06:34;96535.59;;;7.84;100.00
22255;BME280;11296;42.684;23.322;2022-10-17T01:09:00;96564.72;;;7.82;100.00
22255;BME280;11296;42.684;23.322;2022-10-17T01:14:46;96557.41;;;7.86;100.00
22255;BME280;11296;42.684;23.322;2022-10-17T01:26:11;96543.78;;;7.58;100.00
22255;BME280;11296;42.684;23.322;2022-10-17T01:32:00;96573.94;;;7.81;100.00
22255;BME280;11296;42.684;23.322;2022-10-17T01:34:31;96573.84;;;7.65;100.00
22255;BME280;11296;42.684;23.322;2022-10-17T01:39:52;96528.63;;;7.28;100.00
22255;BME280;11296;42.684;23.322;2022-10-17T01:42:25;96547.72;;;7.30;100.00
22255;BME280;11296;42.684;23.322;2022-10-17T01:44:58;96542.69;;;7.32;100.00
22255;BME280;11296;42.684;23.322;2022-10-17T01:47:29;96565.97;;;7.35;100.00
22255;BME280;11296;42.684;23.322;2022-10-17T01:50:11;96583.78;;;7.45;100.00
22255;BME280;11296;42.684;23.322;2022-10-17T01:52:49;96576.56;;;7.42;100.00
22255;BME280;11296;42.684;23.322;2022-10-17T01:55:21;96567.28;;;7.27;100.00
22255;BME280;11296;42.684;23.322;2022-10-17T01:57:50;96575.34;;;7.23;100.00
22255;BME280;11296;42.684;23.322;2022-10-17T02:00:20;96573.78;;;7.26;100.00
22255;BME280;11296;42.684;23.322;2022-10-17T02:02:53;96558.19;;;7.21;100.00
22255;BME280;11296;42.684;23.322;2022-10-17T02:05:25;96564.59;;;7.27;100.00
22255;BME280;11296;42.684;23.322;2022-10-17T02:07:52;96549.91;;;7.12;100.00
22255;BME280;11296;42.684;23.322;2022-10-17T02:13:22;96530.75;;;6.94;100.00
22255;BME280;11296;42.684;23.322;2022-10-17T02:30:39;96604.97;;;7.36;100.00
22255;BME280;11296;42.684;23.322;2022-10-17T02:33:17;96581.34;;;7.08;100.00
22255;BME280;11296;42.684;23.322;2022-10-17T02:35:51;96584.44;;;7.06;100.00
22255;BME280;11296;42.684;23.322;2022-10-17T02:38:19;96596.47;;;7.18;100.00
22255;BME280;11296;42.684;23.322;2022-10-17T02:40:49;96589.72;;;7.10;100.00
22255;BME280;11296;42.684;23.322;2022-10-17T02:43:15;96575.81;;;6.95;100.00
22255;BME280;11296;42.684;23.322;2022-10-17T02:45:41;96625.84;;;7.21;100.00
22255;BME280;11296;42.684;23.322;2022-10-17T02:56:42;96552.22;;;6.63;100.00
22255;BME280;11296;42.684;23.322;2022-10-17T02:59:13;96611.88;;;6.87;100.00
22255;BME280;11296;42.684;23.322;2022-10-17T03:01:42;96651.59;;;7.12;100.00
22255;BME280;11296;42.684;23.322;2022-10-17T03:04:10;96636.03;;;7.07;100.00
22255;BME280;11296;42.684;23.322;2022-10-17T03:06:37;96627.84;;;6.91;100.00
22255;BME280;11296;42.684;23.322;2022-10-17T03:09:03;96604.63;;;6.84;100.00
22255;BME280;11296;42.684;23.322;2022-10-17T03:11:29;96627.16;;;6.87;100.00
22255;BME280;11296;42.684;23.322;2022-10-17T03:13:54;96606.84;;;6.62;100.00
22255;BME280;11296;42.684;23.322;2022-10-17T03:16:20;96615.25;;;6.61;100.00
22255;BME280;11296;42.684;23.322;2022-10-17T03:18:46;96619.38;;;6.69;100.00
22255;BME280;11296;42.684;23.322;2022-10-17T03:21:12;96616.28;;;6.70;100.00
22255;BME280;11296;42.684;23.322;2022-10-17T03:23:38;96631.19;;;6.71;100.00
22255;BME280;11296;42.684;23.322;2022-10-17T03:26:06;96606.59;;;6.53;100.00
22255;BME280;11296;42.684;23.322;2022-10-17T03:28:33;96635.06;;;6.67;100.00
22255;BME280;11296;42.684;23.322;2022-10-17T03:30:58;96622.63;;;6.53;100.00
22255;BME280;11296;42.684;23.322;2022-10-17T03:33:25;96630.94;;;6.59;100.00
22255;BME280;11296;42.684;23.322;2022-10-17T03:35:51;96601.50;;;6.32;100.00
22255;BME280;11296;42.684;23.322;2022-10-17T03:38:17;96656.75;;;6.72;100.00
22255;BME280;11296;42.684;23.322;2022-10-17T03:40:42;96620.38;;;6.52;100.00
22255;BME280;11296;42.684;23.322;2022-10-17T03:43:08;96632.53;;;6.56;100.00
22255;BME280;11296;42.684;23.322;2022-10-17T03:45:39;96616.41;;;6.33;100.00
22255;BME280;11296;42.684;23.322;2022-10-17T03:48:05;96647.47;;;6.54;100.00
22255;BME280;11296;42.684;23.322;2022-10-17T03:50:31;96631.22;;;6.38;100.00
22255;BME280;11296;42.684;23.322;2022-10-17T03:52:58;96631.16;;;6.45;100.00
22255;BME280;11296;42.684;23.322;2022-10-17T03:55:23;96670.56;;;6.67;100.00
22255;BME280;11296;42.684;23.322;2022-10-17T03:57:49;96639.56;;;6.43;100.00
22255;BME280;11296;42.684;23.322;2022-10-17T04:00:18;96599.75;;;6.22;100.00
22255;BME280;11296;42.684;23.322;2022-10-17T04:02:51;96625.88;;;6.38;100.00
22255;BME280;11296;42.684;23.322;2022-10-17T04:05:18;96626.72;;;6.31;100.00
22255;BME280;11296;42.684;23.322;2022-10-17T04:07:44;96661.03;;;6.36;100.00
22255;BME280;11296;42.684;23.322;2022-10-17T04:10:11;96619.22;;;6.23;100.00
22255;BME280;11296;42.684;23.322;2022-10-17T04:12:37;96674.19;;;6.54;100.00
22255;BME280;11296;42.684;23.322;2022-10-17T04:15:04;96689.88;;;6.52;100.00
22255;BME280;11296;42.684;23.322;2022-10-17T04:17:32;96689.19;;;6.44;100.00
22255;BME280;11296;42.684;23.322;2022-10-17T04:20:00;96641.50;;;6.09;100.00
22255;BME280;11296;42.684;23.322;2022-10-17T04:22:26;96659.06;;;6.07;100.00
22255;BME280;11296;42.684;23.322;2022-10-17T04:24:52;96674.19;;;6.20;100.00
22255;BME280;11296;42.684;23.322;2022-10-17T04:27:38;96669.63;;;6.17;100.00
22255;BME280;11296;42.684;23.322;2022-10-17T04:30:05;96665.06;;;6.18;100.00
22255;BME280;11296;42.684;23.322;2022-10-17T04:32:36;96637.75;;;6.03;100.00
22255;BME280;11296;42.684;23.322;2022-10-17T04:35:11;96676.75;;;6.31;100.00
22255;BME280;11296;42.684;23.322;2022-10-17T04:37:40;96676.44;;;6.25;100.00
22255;BME280;11296;42.684;23.322;2022-10-17T04:40:11;96628.66;;;5.97;100.00
22255;BME280;11296;42.684;23.322;2022-10-17T04:42:37;96649.16;;;6.07;100.00
22255;BME280;11296;42.684;23.322;2022-10-17T04:45:04;96648.38;;;6.10;100.00
22255;BME280;11296;42.684;23.322;2022-10-17T04:47:30;96648.91;;;5.94;100.00
22255;BME280;11296;42.684;23.322;2022-10-17T04:49:56;96673.47;;;6.16;100.00
22255;BME280;11296;42.684;23.322;2022-10-17T04:52:22;96668.56;;;6.11;100.00
22255;BME280;11296;42.684;23.322;2022-10-17T04:54:49;96659.19;;;5.96;100.00
22255;BME280;11296;42.684;23.322;2022-10-17T04:57:16;96648.63;;;5.82;100.00
22255;BME280;11296;42.684;23.322;2022-10-17T04:59:51;96638.84;;;5.68;100.00
22255;BME280;11296;42.684;23.322;2022-10-17T05:02:45;96685.78;;;6.07;100.00
22255;BME280;11296;42.684;23.322;2022-10-17T05:05:11;96682.63;;;6.15;100.00
22255;BME280;11296;42.684;23.322;2022-10-17T05:07:42;96646.78;;;6.16;100.00
22255;BME280;11296;42.684;23.322;2022-10-17T05:10:11;96723.78;;;6.58;100.00
22255;BME280;11296;42.684;23.322;2022-10-17T05:12:40;96675.41;;;6.49;100.00
22255;BME280;11296;42.684;23.322;2022-10-17T05:15:06;96682.47;;;6.93;100.00
22255;BME280;11296;42.684;23.322;2022-10-17T05:17:33;96683.72;;;7.12;100.00
22255;BME280;11296;42.684;23.322;2022-10-17T05:20:02;96673.84;;;7.09;100.00
22255;BME280;11296;42.684;23.322;2022-10-17T05:22:30;96674.78;;;6.95;100.00
22255;BME280;11296;42.684;23.322;2022-10-17T05:24:56;96686.34;;;6.89;100.00
22255;BME280;11296;42.684;23.322;2022-10-17T05:27:22;96661.34;;;6.72;100.00
22255;BME280;11296;42.684;23.322;2022-10-17T05:29:48;96687.97;;;6.83;100.00
22255;BME280;11296;42.684;23.322;2022-10-17T05:32:23;96689.66;;;6.69;100.00
22255;BME280;11296;42.684;23.322;2022-10-17T05:34:48;96719.84;;;6.97;100.00
22255;BME280;11296;42.684;23.322;2022-10-17T05:37:14;96654.28;;;6.58;100.00
22255;BME280;11296;42.684;23.322;2022-10-17T05:39:45;96688.75;;;6.80;100.00
22255;BME280;11296;42.684;23.322;2022-10-17T05:42:11;96715.41;;;6.87;100.00
22255;BME280;11296;42.684;23.322;2022-10-17T05:44:37;96670.66;;;6.60;100.00
22255;BME280;11296;42.684;23.322;2022-10-17T05:47:06;96743.69;;;7.14;100.00
22255;BME280;11296;42.684;23.322;2022-10-17T05:49:34;96716.66;;;7.09;100.00
22255;BME280;11296;42.684;23.322;2022-10-17T05:52:00;96703.34;;;7.02;100.00
22255;BME280;11296;42.684;23.322;2022-10-17T05:54:30;96724.09;;;7.21;100.00
22255;BME280;11296;42.684;23.322;2022-10-17T05:56:57;96681.50;;;7.07;100.00
22255;BME280;11296;42.684;23.322;2022-10-17T05:59:26;96737.56;;;7.44;100.00
22255;BME280;11296;42.684;23.322;2022-10-17T06:02:00;96739.19;;;7.61;100.00
22255;BME280;11296;42.684;23.322;2022-10-17T06:04:26;96726.56;;;7.62;100.00
22255;BME280;11296;42.684;23.322;2022-10-17T06:06:52;96737.34;;;7.81;100.00
22255;BME280;11296;42.684;23.322;2022-10-17T06:09:18;96715.78;;;7.65;100.00
22255;BME280;11296;42.684;23.322;2022-10-17T06:11:47;96724.66;;;7.62;100.00
22255;BME280;11296;42.684;23.322;2022-10-17T06:14:14;96711.03;;;7.53;100.00
22255;BME280;11296;42.684;23.322;2022-10-17T06:16:41;96727.84;;;7.77;100.00
22255;BME280;11296;42.684;23.322;2022-10-17T06:19:08;96726.88;;;7.90;100.00
22255;BME280;11296;42.684;23.322;2022-10-17T06:21:36;96732.16;;;7.94;100.00
22255;BME280;11296;42.684;23.322;2022-10-17T06:24:10;96769.19;;;8.26;100.00
22255;BME280;11296;42.684;23.322;2022-10-17T06:26:39;96760.22;;;8.09;100.00
22255;BME280;11296;42.684;23.322;2022-10-17T06:29:07;96748.97;;;8.17;100.00
22255;BME280;11296;42.684;23.322;2022-10-17T06:31:39;96718.78;;;8.13;100.00
22255;BME280;11296;42.684;23.322;2022-10-17T06:34:05;96759.09;;;8.53;100.00
22255;BME280;11296;42.684;23.322;2022-10-17T06:36:31;96763.78;;;8.68;100.00
22255;BME280;11296;42.684;23.322;2022-10-17T06:38:58;96790.22;;;8.89;100.00
22255;BME280;11296;42.684;23.322;2022-10-17T06:41:31;96768.19;;;8.78;100.00
22255;BME280;11296;42.684;23.322;2022-10-17T06:44:06;96742.19;;;8.75;100.00
22255;BME280;11296;42.684;23.322;2022-10-17T06:46:44;96743.84;;;8.69;100.00
22255;BME280;11296;42.684;23.322;2022-10-17T06:49:14;96759.25;;;8.85;100.00
22255;BME280;11296;42.684;23.322;2022-10-17T06:52:02;96770.03;;;9.01;100.00
22255;BME280;11296;42.684;23.322;2022-10-17T06:54:51;96766.63;;;9.17;100.00
22255;BME280;11296;42.684;23.322;2022-10-17T06:57:32;96751.28;;;9.17;100.00
22255;BME280;11296;42.684;23.322;2022-10-17T07:00:20;96740.53;;;9.17;100.00
22255;BME280;11296;42.684;23.322;2022-10-17T07:02:51;96750.13;;;9.34;100.00
22255;BME280;11296;42.684;23.322;2022-10-17T07:05:17;96788.06;;;9.72;100.00
22255;BME280;11296;42.684;23.322;2022-10-17T07:07:59;96735.41;;;9.42;100.00
22255;BME280;11296;42.684;23.322;2022-10-17T07:10:25;96765.78;;;9.71;100.00
22255;BME280;11296;42.684;23.322;2022-10-17T07:12:51;96737.25;;;9.61;100.00
22255;BME280;11296;42.684;23.322;2022-10-17T07:15:17;96735.50;;;9.71;100.00
22255;BME280;11296;42.684;23.322;2022-10-17T07:17:57;96719.63;;;9.77;100.00
22255;BME280;11296;42.684;23.322;2022-10-17T07:20:29;96744.31;;;9.88;100.00
22255;BME280;11296;42.684;23.322;2022-10-17T07:23:07;96740.19;;;9.99;100.00
22255;BME280;11296;42.684;23.322;2022-10-17T07:25:52;96780.59;;;10.28;100.00
22255;BME280;11296;42.684;23.322;2022-10-17T07:28:18;96746.84;;;10.11;100.00
22255;BME280;11296;42.684;23.322;2022-10-17T07:30:44;96755.06;;;10.20;100.00
22255;BME280;11296;42.684;23.322;2022-10-17T07:33:11;96766.44;;;10.40;100.00
22255;BME280;11296;42.684;23.322;2022-10-17T07:35:38;96740.63;;;10.42;100.00
22255;BME280;11296;42.684;23.322;2022-10-17T07:38:07;96750.06;;;10.63;100.00
22255;BME280;11296;42.684;23.322;2022-10-17T07:40:33;96758.94;;;10.76;100.00
22255;BME280;11296;42.684;23.322;2022-10-17T07:42:59;96774.41;;;11.01;100.00
22255;BME280;11296;42.684;23.322;2022-10-17T07:45:26;96764.50;;;10.98;100.00
22255;BME280;11296;42.684;23.322;2022-10-17T07:47:56;96798.69;;;11.26;100.00
22255;BME280;11296;42.684;23.322;2022-10-17T07:50:23;96788.34;;;11.25;100.00
22255;BME280;11296;42.684;23.322;2022-10-17T07:52:49;96733.75;;;10.83;100.00
22255;BME280;11296;42.684;23.322;2022-10-17T07:55:15;96752.97;;;10.97;100.00
22255;BME280;11296;42.684;23.322;2022-10-17T07:57:41;96756.66;;;11.29;100.00
22255;BME280;11296;42.684;23.322;2022-10-17T08:00:09;96768.25;;;11.54;100.00
22255;BME280;11296;42.684;23.322;2022-10-17T08:02:38;96750.53;;;11.53;100.00
22255;BME280;11296;42.684;23.322;2022-10-17T08:05:04;96795.19;;;11.92;100.00
22255;BME280;11296;42.684;23.322;2022-10-17T08:07:30;96740.84;;;11.81;100.00
22255;BME280;11296;42.684;23.322;2022-10-17T08:09:58;96779.41;;;12.16;100.00
22255;BME280;11296;42.684;23.322;2022-10-17T08:12:24;96734.31;;;12.04;100.00
22255;BME280;11296;42.684;23.322;2022-10-17T08:14:50;96752.94;;;12.23;100.00
22255;BME280;11296;42.684;23.322;2022-10-17T08:17:20;96712.38;;;12.14;100.00
22255;BME280;11296;42.684;23.322;2022-10-17T08:19:46;96757.38;;;12.51;100.00
22255;BME280;11296;42.684;23.322;2022-10-17T08:22:12;96748.72;;;12.56;100.00
22255;BME280;11296;42.684;23.322;2022-10-17T08:24:38;96746.16;;;12.53;100.00
22255;BME280;11296;42.684;23.322;2022-10-17T08:27:03;96748.25;;;12.71;100.00
22255;BME280;11296;42.684;23.322;2022-10-17T08:29:36;96732.84;;;12.58;100.00
22255;BME280;11296;42.684;23.322;2022-10-17T08:32:05;96713.25;;;12.45;100.00
22255;BME280;11296;42.684;23.322;2022-10-17T08:34:34;96705.75;;;12.62;100.00
22255;BME280;11296;42.684;23.322;2022-10-17T08:37:00;96723.88;;;13.05;100.00
22255;BME280;11296;42.684;23.322;2022-10-17T08:39:30;96717.81;;;13.01;100.00
22255;BME280;11296;42.684;23.322;2022-10-17T08:42:07;96752.56;;;13.42;100.00
22255;BME280;11296;42.684;23.322;2022-10-17T08:47:12;96753.81;;;13.90;100.00
22255;BME280;11296;42.684;23.322;2022-10-17T08:49:57;96726.78;;;14.17;100.00
22255;BME280;11296;42.684;23.322;2022-10-17T08:52:35;96767.59;;;14.86;100.00
22255;BME280;11296;42.684;23.322;2022-10-17T08:55:13;96742.00;;;14.87;89.22
22255;BME280;11296;42.684;23.322;2022-10-17T08:57:40;96746.78;;;15.01;90.62
22255;BME280;11296;42.684;23.322;2022-10-17T09:00:16;96720.84;;;15.93;84.05
22255;BME280;11296;42.684;23.322;2022-10-17T09:05:38;96758.63;;;20.94;61.25
22255;BME280;11296;42.684;23.322;2022-10-17T09:11:36;96713.03;;;22.81;45.51
22255;BME280;11296;42.684;23.322;2022-10-17T09:20:11;96734.97;;;23.87;42.14
22255;BME280;11296;42.684;23.322;2022-10-17T09:25:16;96721.63;;;24.82;39.08
22255;BME280;11296;42.684;23.322;2022-10-17T09:30:42;96744.50;;;26.83;34.57
22255;BME280;11296;42.684;23.322;2022-10-17T09:33:19;96752.09;;;25.72;32.41
22255;BME280;11296;42.684;23.322;2022-10-17T09:35:48;96714.78;;;26.63;32.64
22255;BME280;11296;42.684;23.322;2022-10-17T09:38:21;96706.19;;;27.54;31.49
22255;BME280;11296;42.684;23.322;2022-10-17T09:40:55;96715.97;;;26.54;32.25
22255;BME280;11296;42.684;23.322;2022-10-17T09:43:22;96711.06;;;26.60;32.51
22255;BME280;11296;42.684;23.322;2022-10-17T09:46:06;96721.56;;;27.08;32.86
22255;BME280;11296;42.684;23.322;2022-10-17T09:48:38;96703.72;;;27.30;31.37
22255;BME280;11296;42.684;23.322;2022-10-17T09:51:06;96705.81;;;27.78;29.93
22255;BME280;11296;42.684;23.322;2022-10-17T09:53:36;96731.09;;;28.59;29.68
22255;BME280;11296;42.684;23.322;2022-10-17T09:56:10;96729.34;;;28.92;28.99
22255;BME280;11296;42.684;23.322;2022-10-17T09:58:43;96712.63;;;28.26;27.65
22255;BME280;11296;42.684;23.322;2022-10-17T10:01:30;96669.22;;;27.24;28.37
22255;BME280;11296;42.684;23.322;2022-10-17T10:04:13;96682.50;;;27.95;27.82
22255;BME280;11296;42.684;23.322;2022-10-17T10:06:41;96691.25;;;27.78;28.11
22255;BME280;11296;42.684;23.322;2022-10-17T10:09:29;96676.19;;;28.50;27.28
22255;BME280;11296;42.684;23.322;2022-10-17T10:11:57;96703.78;;;27.79;27.01
22255;BME280;11296;42.684;23.322;2022-10-17T10:14:29;96693.88;;;28.47;27.14
22255;BME280;11296;42.684;23.322;2022-10-17T10:16:58;96675.91;;;28.62;25.50
22255;BME280;11296;42.684;23.322;2022-10-17T10:19:33;96694.75;;;28.35;25.20
22255;BME280;11296;42.684;23.322;2022-10-17T10:22:04;96680.94;;;28.42;24.48
22255;BME280;11296;42.684;23.322;2022-10-17T10:24:31;96680.97;;;27.86;26.21
22255;BME280;11296;42.684;23.322;2022-10-17T10:27:02;96671.91;;;28.06;24.02
22255;BME280;11296;42.684;23.322;2022-10-17T10:29:56;96690.09;;;29.24;23.78
22255;BME280;11296;42.684;23.322;2022-10-17T11:26:42;96618.09;;;30.56;22.08
22255;BME280;11296;42.684;23.322;2022-10-17T11:29:02;96620.41;;;30.75;21.50
22255;BME280;11296;42.684;23.322;2022-10-17T11:32:00;96627.84;;;30.72;21.60
22255;BME280;11296;42.684;23.322;2022-10-17T11:50:46;96601.78;;;31.42;21.28
22255;BME280;11296;42.684;23.322;2022-10-17T11:53:26;96571.94;;;29.74;22.58
22255;BME280;11296;42.684;23.322;2022-10-17T11:55:57;96594.88;;;30.37;22.17
22255;BME280;11296;42.684;23.322;2022-10-17T12:26:04;96580.88;;;31.75;20.66
22255;BME280;11296;42.684;23.322;2022-10-17T12:33:58;96579.53;;;32.01;19.61
22255;BME280;11296;42.684;23.322;2022-10-17T12:52:16;96586.41;;;29.12;22.17
22255;BME280;11296;42.684;23.322;2022-10-17T12:54:49;96570.53;;;30.13;21.78
22255;BME280;11296;42.684;23.322;2022-10-17T13:00:16;96567.47;;;31.81;19.84
22255;BME280;11296;42.684;23.322;2022-10-17T13:02:46;96563.31;;;32.07;19.76
22255;BME280;11296;42.684;23.322;2022-10-17T13:05:39;96566.91;;;32.00;19.80
22255;BME280;11296;42.684;23.322;2022-10-17T13:08:15;96539.22;;;31.09;19.75
22255;BME280;11296;42.684;23.322;2022-10-17T13:10:46;96591.94;;;30.99;20.31
22255;BME280;11296;42.684;23.322;2022-10-17T13:13:17;96569.31;;;29.83;21.11
22255;BME280;11296;42.684;23.322;2022-10-17T13:15:50;96561.22;;;30.33;20.85
22255;BME280;11296;42.684;23.322;2022-10-17T13:18:24;96558.16;;;30.06;20.52
22255;BME280;11296;42.684;23.322;2022-10-17T13:25:18;96537.81;;;31.00;20.73
22255;BME280;11296;42.684;23.322;2022-10-17T13:27:45;96558.50;;;32.87;19.34
22255;BME280;11296;42.684;23.322;2022-10-17T13:30:46;96529.66;;;33.57;19.07
22255;BME280;11296;42.684;23.322;2022-10-17T13:33:32;96546.84;;;33.73;18.56
22255;BME280;11296;42.684;23.322;2022-10-17T13:36:13;96531.91;;;33.13;19.97
22255;BME280;11296;42.684;23.322;2022-10-17T13:38:47;96529.91;;;32.97;20.07
22255;BME280;11296;42.684;23.322;2022-10-17T13:41:14;96547.19;;;32.05;20.73
22255;BME280;11296;42.684;23.322;2022-10-17T13:43:43;96534.81;;;31.06;20.95
22255;BME280;11296;42.684;23.322;2022-10-17T13:47:27;96574.16;;;30.38;21.99
22255;BME280;11296;42.684;23.322;2022-10-17T13:49:58;96559.94;;;30.19;22.36
22255;BME280;11296;42.684;23.322;2022-10-17T13:52:40;96534.19;;;30.58;22.24
22255;BME280;11296;42.684;23.322;2022-10-17T13:55:15;96525.06;;;30.65;21.98
22255;BME280;11296;42.684;23.322;2022-10-17T13:58:15;96574.00;;;30.60;22.50
22255;BME280;11296;42.684;23.322;2022-10-17T14:00:46;96571.28;;;28.24;24.31
22255;BME280;11296;42.684;23.322;2022-10-17T14:03:15;96558.97;;;27.97;24.63
22255;BME280;11296;42.684;23.322;2022-10-17T14:08:58;96535.88;;;28.45;24.93
22255;BME280;11296;42.684;23.322;2022-10-17T14:11:40;96542.59;;;28.80;24.13
22255;BME280;11296;42.684;23.322;2022-10-17T14:14:16;96537.13;;;27.43;25.58
22255;BME280;11296;42.684;23.322;2022-10-17T14:16:51;96526.16;;;26.47;27.29
22255;BME280;11296;42.684;23.322;2022-10-17T14:19:31;96562.47;;;27.62;26.84
22255;BME280;11296;42.684;23.322;2022-10-17T14:24:48;96561.16;;;26.31;27.62
22255;BME280;11296;42.684;23.322;2022-10-17T14:27:59;96600.88;;;26.49;27.80
22255;BME280;11296;42.684;23.322;2022-10-17T14:30:42;96572.22;;;25.14;29.11
22255;BME280;11296;42.684;23.322;2022-10-17T14:33:30;96593.03;;;24.08;30.91
22255;BME280;11296;42.684;23.322;2022-10-17T14:35:59;96566.41;;;23.79;31.25
22255;BME280;11296;42.684;23.322;2022-10-17T14:38:26;96560.38;;;23.08;32.39
22255;BME280;11296;42.684;23.322;2022-10-17T14:41:22;96593.56;;;23.83;32.26
22255;BME280;11296;42.684;23.322;2022-10-17T14:43:55;96530.97;;;23.27;32.69
22255;BME280;11296;42.684;23.322;2022-10-17T14:46:24;96577.41;;;23.01;33.28
22255;BME280;11296;42.684;23.322;2022-10-17T14:49:16;96567.69;;;21.78;35.30
22255;BME280;11296;42.684;23.322;2022-10-17T14:52:11;96613.63;;;20.89;37.80
22255;BME280;11296;42.684;23.322;2022-10-17T14:54:37;96606.25;;;20.14;39.77
22255;BME280;11296;42.684;23.322;2022-10-17T14:57:21;96638.41;;;19.76;41.76
22255;BME280;11296;42.684;23.322;2022-10-17T14:59:47;96595.66;;;19.25;43.64
22255;BME280;11296;42.684;23.322;2022-10-17T15:02:13;96602.97;;;19.08;44.75
22255;BME280;11296;42.684;23.322;2022-10-17T15:04:39;96587.34;;;18.72;46.05
22255;BME280;11296;42.684;23.322;2022-10-17T15:07:12;96592.53;;;18.44;47.56
22255;BME280;11296;42.684;23.322;2022-10-17T15:09:38;96603.50;;;18.50;48.95
22255;BME280;11296;42.684;23.322;2022-10-17T15:12:10;96561.41;;;18.31;49.58
22255;BME280;11296;42.684;23.322;2022-10-17T15:14:41;96635.81;;;18.63;50.77
22255;BME280;11296;42.684;23.322;2022-10-17T15:17:17;96612.38;;;18.45;51.16
22255;BME280;11296;42.684;23.322;2022-10-17T15:19:46;96565.41;;;17.84;52.73
22255;BME280;11296;42.684;23.322;2022-10-17T15:22:16;96636.38;;;18.01;54.85
22255;BME280;11296;42.684;23.322;2022-10-17T15:24:44;96597.38;;;17.69;57.00
22255;BME280;11296;42.684;23.322;2022-10-17T15:27:21;96569.56;;;17.45;56.00
22255;BME280;11296;42.684;23.322;2022-10-17T15:30:24;96558.44;;;17.43;56.50
22255;BME280;11296;42.684;23.322;2022-10-17T15:33:53;96564.28;;;17.36;56.18
22255;BME280;11296;42.684;23.322;2022-10-17T16:02:13;96637.22;;;16.88;66.68
22255;BME280;11296;42.684;23.322;2022-10-17T16:04:39;96646.31;;;16.70;66.29
22255;BME280;11296;42.684;23.322;2022-10-17T16:07:05;96662.47;;;16.74;71.07
22255;BME280;11296;42.684;23.322;2022-10-17T16:09:32;96694.69;;;16.95;71.58
22255;BME280;11296;42.684;23.322;2022-10-17T16:11:59;96642.41;;;16.71;69.60
22255;BME280;11296;42.684;23.322;2022-10-17T16:14:30;96610.50;;;16.43;69.51
22255;BME280;11296;42.684;23.322;2022-10-17T16:16:59;96703.41;;;16.85;70.53
22255;BME280;11296;42.684;23.322;2022-10-17T16:19:25;96659.78;;;16.50;70.96
22255;BME280;11296;42.684;23.322;2022-10-17T16:21:57;96614.72;;;15.91;70.49
22255;BME280;11296;42.684;23.322;2022-10-17T16:24:25;96641.56;;;16.12;73.04
22255;BME280;11296;42.684;23.322;2022-10-17T16:26:51;96678.09;;;16.26;77.09
22255;BME280;11296;42.684;23.322;2022-10-17T16:34:14;96623.41;;;15.56;76.67
22255;BME280;11296;42.684;23.322;2022-10-17T16:37:38;96687.53;;;15.92;80.31
22255;BME280;11296;42.684;23.322;2022-10-17T16:40:38;96639.66;;;15.56;81.93
22255;BME280;11296;42.684;23.322;2022-10-17T16:43:15;96691.97;;;15.81;81.97
22255;BME280;11296;42.684;23.322;2022-10-17T16:45:40;96693.53;;;15.73;81.57
22255;BME280;11296;42.684;23.322;2022-10-17T16:48:08;96688.56;;;15.71;83.91
22255;BME280;11296;42.684;23.322;2022-10-17T16:50:37;96640.31;;;15.42;89.31
22255;BME280;11296;42.684;23.322;2022-10-17T16:53:03;96679.31;;;15.54;87.90
22255;BME280;11296;42.684;23.322;2022-10-17T16:55:29;96728.44;;;15.80;91.36
22255;BME280;11296;42.684;23.322;2022-10-17T16:57:54;96699.53;;;15.53;92.25
22255;BME280;11296;42.684;23.322;2022-10-17T17:00:20;96706.94;;;15.43;94.89
22255;BME280;11296;42.684;23.322;2022-10-17T17:02:46;96723.81;;;15.29;96.94